DFSRT EDDN-EDXW
Flight info
| Callsign | DFSRT |
|---|---|
| Flight time | N/A |
| Altitude | 18000 |
| Route | ERETO1G ERETO DCT LONLI M726 LASTO DCT ZUCKA DCT ELSOB/N0270F250 Y348 OMWEG/N0272F240 DCT BADOS DCT OLDIP OLDIPXILS/32 |
| Aircraft | PC12/L-SDFGRWY/S |
Departure
| Time | N/A |
|---|---|
| Airport | Nuremberg Airport (EDDN) |
Arrival
| Time | 2026-04-26 17:46 |
|---|---|
| Airport | Westerland Sylt Airport (EDXW) |
| Time | Latitude | Longitude | Altitude | Speed | Heading |
|---|---|---|---|---|---|
| 2026-04-26 17:44 | 54.85985 | 8.40567 | 1413 ft | 128 kts | 322° |
| 2026-04-26 17:44 | 54.86707 | 8.39689 | 1127 ft | 123 kts | 322° |
| 2026-04-26 17:44 | 54.87370 | 8.38860 | 877 ft | 110 kts | 322° |
| 2026-04-26 17:44 | 54.87934 | 8.38177 | 716 ft | 91 kts | 322° |
| 2026-04-26 17:45 | 54.88452 | 8.37560 | 592 ft | 90 kts | 322° |
| 2026-04-26 17:45 | 54.88960 | 8.36951 | 451 ft | 87 kts | 322° |
| 2026-04-26 17:45 | 54.89454 | 8.36353 | 307 ft | 87 kts | 323° |
| 2026-04-26 17:45 | 54.89942 | 8.35751 | 197 ft | 85 kts | 322° |
| 2026-04-26 17:46 | 54.90399 | 8.35184 | 68 ft | 77 kts | 323° |
| 2026-04-26 17:46 | 54.90785 | 8.34705 | 35 ft | 58 kts | 325° |
| 2026-04-26 17:46 | 54.91064 | 8.34367 | 43 ft | 42 kts | 325° |
| 2026-04-26 17:46 | 54.91251 | 8.34139 | 41 ft | 21 kts | 326° |
| 2026-04-26 17:47 | 54.91276 | 8.33908 | 35 ft | 25 kts | 239° |
| 2026-04-26 17:47 | 54.91214 | 8.33727 | 33 ft | 27 kts | 240° |
| 2026-04-26 17:47 | 54.91077 | 8.33321 | 33 ft | 30 kts | 240° |
| 2026-04-26 17:47 | 54.91004 | 8.33113 | 35 ft | 0 kts | 235° |
| 2026-04-26 17:48 | 54.90998 | 8.33077 | 36 ft | 9 kts | 269° |
| 2026-04-26 17:48 | 54.91042 | 8.32944 | 37 ft | 16 kts | 311° |
| 2026-04-26 17:48 | 54.91126 | 8.32782 | 36 ft | 21 kts | 312° |
| 2026-04-26 17:48 | 54.91244 | 8.32589 | 29 ft | 26 kts | 331° |
| 2026-04-26 17:49 | 54.91384 | 8.32472 | 24 ft | 20 kts | 321° |
| 2026-04-26 17:49 | 54.91373 | 8.32433 | 25 ft | 0 kts | 124° |